Time;durP1;ratioP1;P1;durP2;ratioP2;P2;SDS_P1;SDS_P2;PMS_P1;PMS_P2;Temp;Humidity;BMP_temperature;BMP_pressure;BME280_temperature;BME280_humidity;BME280_pressure;Samples;Min_cycle;Max_cycle;Signal;HPM_P1;HPM_P2
2021/10/15 00:00:14;;;;;;;11.57;5.80;;;;;;;3.51;100.00;99247.75;4988970;28;20050;-66
2021/10/15 00:02:40;;;;;;;17.88;10.55;;;;;;;3.32;100.00;99253.19;4988610;28;20152;-66
2021/10/15 00:05:06;;;;;;;18.05;10.60;;;;;;;3.18;100.00;99258.00;4992462;28;20368;-66
2021/10/15 00:07:31;;;;;;;19.60;8.60;;;;;;;2.89;100.00;99241.22;5007689;28;20022;-67
2021/10/15 00:09:57;;;;;;;10.30;6.10;;;;;;;2.78;100.00;99239.53;4993065;28;20077;-67
2021/10/15 00:12:22;;;;;;;11.68;5.85;;;;;;;2.94;100.00;99253.16;4982561;28;20399;-66
2021/10/15 00:14:47;;;;;;;9.57;5.85;;;;;;;2.81;100.00;99256.13;4974038;28;20058;-66
2021/10/15 00:17:13;;;;;;;8.30;5.40;;;;;;;2.79;100.00;99257.25;4988825;28;20019;-66
2021/10/15 00:19:38;;;;;;;7.45;5.20;;;;;;;2.77;100.00;99246.69;4991082;28;20550;-66
2021/10/15 00:22:03;;;;;;;13.52;6.05;;;;;;;2.82;100.00;99230.22;4993467;28;20032;-67
2021/10/15 00:24:29;;;;;;;14.05;6.55;;;;;;;3.02;100.00;99244.41;4994991;28;20054;-66
2021/10/15 00:26:54;;;;;;;25.85;14.30;;;;;;;3.02;100.00;99241.75;4996398;28;20056;-66
2021/10/15 00:29:19;;;;;;;23.17;12.85;;;;;;;2.95;100.00;99245.97;4992838;28;20022;-68
2021/10/15 00:31:45;;;;;;;18.70;10.95;;;;;;;2.80;100.00;99243.75;4975620;28;20509;-66
2021/10/15 00:34:10;;;;;;;18.35;10.48;;;;;;;2.83;100.00;99239.97;4991805;28;20030;-66
2021/10/15 00:36:35;;;;;;;15.50;8.57;;;;;;;2.79;100.00;99236.72;4995185;28;20387;-66
2021/10/15 00:39:01;;;;;;;15.13;7.97;;;;;;;2.72;100.00;99248.09;4995809;28;20030;-66
2021/10/15 00:41:26;;;;;;;16.25;7.68;;;;;;;2.68;100.00;99247.56;4993829;28;20089;-66
2021/10/15 00:44:11;;;;;;;9.80;6.30;;;;;;;2.59;100.00;99249.25;4985671;28;20034;-66
2021/10/15 00:46:38;;;;;;;11.93;7.03;;;;;;;2.67;100.00;99237.00;4984933;28;20109;-66
2021/10/15 00:49:05;;;;;;;10.25;6.18;;;;;;;2.79;100.00;99236.72;4983027;28;20026;-66
2021/10/15 00:51:32;;;;;;;12.70;6.57;;;;;;;2.77;100.00;99230.66;4996202;28;20571;-66
2021/10/15 00:54:00;;;;;;;12.35;7.15;;;;;;;2.72;100.00;99219.56;4993612;28;20034;-66
2021/10/15 00:56:27;;;;;;;10.85;6.45;;;;;;;2.60;100.00;99231.41;4984421;28;20030;-67
2021/10/15 00:58:53;;;;;;;10.43;6.20;;;;;;;2.66;100.00;99227.31;4980343;28;20066;-66
2021/10/15 01:01:18;;;;;;;13.73;6.55;;;;;;;2.65;100.00;99229.16;4986127;28;20074;-66
2021/10/15 01:03:43;;;;;;;13.93;6.45;;;;;;;2.63;100.00;99225.78;4976683;28;20034;-67
2021/10/15 01:06:09;;;;;;;13.57;6.55;;;;;;;2.70;100.00;99226.91;4985700;28;20045;-67
2021/10/15 01:08:39;;;;;;;16.20;7.32;;;;;;;2.59;100.00;99206.53;4980288;28;20027;-66
2021/10/15 01:11:05;;;;;;;12.32;6.55;;;;;;;2.51;100.00;99205.53;4991958;28;20144;-67
2021/10/15 01:13:31;;;;;;;14.73;7.22;;;;;;;2.61;100.00;99203.69;4983856;28;20088;-66
2021/10/15 01:16:04;;;;;;;12.82;6.43;;;;;;;2.61;100.00;99206.38;4986403;28;20021;-67
2021/10/15 01:18:30;;;;;;;9.50;5.88;;;;;;;2.47;100.00;99177.44;4993992;28;20027;-66
2021/10/15 01:20:55;;;;;;;10.35;5.90;;;;;;;2.51;100.00;99189.50;4987555;28;20041;-68
2021/10/15 01:23:20;;;;;;;9.38;5.40;;;;;;;2.58;100.00;99204.81;4978105;28;20049;-67
2021/10/15 01:25:46;;;;;;;8.60;5.25;;;;;;;2.48;100.00;99201.31;4987204;28;20542;-67
2021/10/15 01:28:11;;;;;;;7.43;5.05;;;;;;;2.41;100.00;99178.81;4985149;28;20022;-67
2021/10/15 01:30:37;;;;;;;9.32;5.40;;;;;;;2.45;100.00;99195.44;4993121;28;20034;-67
2021/10/15 01:33:02;;;;;;;9.27;5.68;;;;;;;2.24;100.00;99172.38;4994139;28;20539;-67
2021/10/15 01:35:28;;;;;;;10.77;5.82;;;;;;;2.29;100.00;99193.31;4994359;28;20034;-67
2021/10/15 01:37:53;;;;;;;9.25;5.45;;;;;;;2.25;100.00;99159.88;4994219;28;20414;-67
2021/10/15 01:40:18;;;;;;;10.35;5.47;;;;;;;2.55;100.00;99177.56;4995347;28;20113;-67
2021/10/15 01:42:56;;;;;;;8.75;5.10;;;;;;;2.36;100.00;99181.94;4995750;28;20153;-66
2021/10/15 01:45:29;;;;;;;8.60;4.90;;;;;;;2.24;100.00;99166.22;4994931;28;20036;-67
2021/10/15 01:47:55;;;;;;;9.38;5.30;;;;;;;2.27;100.00;99176.59;4993012;28;20113;-67
2021/10/15 01:50:22;;;;;;;10.32;5.38;;;;;;;2.24;100.00;99171.56;4977954;28;20371;-67
2021/10/15 01:52:48;;;;;;;8.80;4.90;;;;;;;2.11;100.00;99145.13;4976210;28;20069;-67
2021/10/15 01:55:14;;;;;;;8.68;5.30;;;;;;;2.23;100.00;99161.84;4988196;28;20113;-67
2021/10/15 01:57:39;;;;;;;9.40;5.05;;;;;;;2.15;100.00;99160.72;4994959;28;20595;-66
2021/10/15 02:00:06;;;;;;;10.85;5.45;;;;;;;2.21;100.00;99154.00;4993750;28;20037;-66
2021/10/15 02:02:32;;;;;;;9.77;5.05;;;;;;;2.15;100.00;99147.38;4994470;28;20399;-68
2021/10/15 02:04:57;;;;;;;14.52;5.82;;;;;;;2.00;100.00;99108.75;4994865;28;20042;-67
2021/10/15 02:07:23;;;;;;;8.55;5.00;;;;;;;2.26;100.00;99150.91;4991617;28;20547;-67
2021/10/15 02:09:49;;;;;;;8.73;5.00;;;;;;;2.40;100.00;99145.09;4992534;28;20061;-67
2021/10/15 02:12:14;;;;;;;9.73;4.65;;;;;;;2.42;100.00;99143.97;4980245;28;20030;-67
2021/10/15 02:14:39;;;;;;;11.52;4.85;;;;;;;2.51;100.00;99141.44;4993308;28;20670;-67
2021/10/15 02:17:05;;;;;;;11.27;6.53;;;;;;;2.79;100.00;99151.22;4993886;28;20058;-67
2021/10/15 02:19:30;;;;;;;10.85;6.28;;;;;;;2.64;100.00;99123.25;4993960;28;20068;-67
2021/10/15 02:21:55;;;;;;;9.38;5.95;;;;;;;2.66;100.00;99137.31;4979116;28;20034;-67
2021/10/15 02:24:21;;;;;;;7.20;4.55;;;;;;;2.58;100.00;99132.69;4990492;28;20050;-67
2021/10/15 02:26:46;;;;;;;9.75;5.53;;;;;;;2.58;100.00;99135.38;4997677;28;20026;-67
2021/10/15 02:29:12;;;;;;;13.18;5.38;;;;;;;2.28;100.00;99093.72;4997951;28;20058;-67
2021/10/15 02:31:37;;;;;;;9.60;5.20;;;;;;;2.30;100.00;99091.72;4992148;28;20033;-67
2021/10/15 02:34:02;;;;;;;8.98;4.22;;;;;;;2.46;100.00;99120.50;4993865;28;20026;-67
2021/10/15 02:36:28;;;;;;;8.35;4.57;;;;;;;2.53;100.00;99126.13;4986050;28;20047;-67
2021/10/15 02:38:53;;;;;;;8.60;4.65;;;;;;;2.49;100.00;99095.31;5009571;28;20030;-67
2021/10/15 02:41:19;;;;;;;11.23;5.38;;;;;;;2.64;100.00;99093.88;4984849;28;20361;-67
2021/10/15 02:43:44;;;;;;;9.00;5.70;;;;;;;2.68;100.00;99113.16;4981961;28;20566;-67
2021/10/15 02:46:14;;;;;;;8.48;5.15;;;;;;;2.60;100.00;99105.84;4993847;28;20030;-67
2021/10/15 02:48:39;;;;;;;6.57;4.53;;;;;;;2.47;100.00;99100.84;4993271;28;20033;-67
2021/10/15 02:51:05;;;;;;;9.68;4.38;;;;;;;2.50;100.00;99100.53;4985632;28;20038;-67
2021/10/15 02:53:30;;;;;;;11.18;5.03;;;;;;;2.43;100.00;99088.75;5009414;28;20022;-67
2021/10/15 02:55:55;;;;;;;6.57;4.40;;;;;;;2.50;100.00;99097.03;4993494;28;20058;-67
2021/10/15 02:58:20;;;;;;;7.35;5.00;;;;;;;2.59;100.00;99086.31;4992516;28;20042;-67
2021/10/15 03:00:46;;;;;;;13.38;5.25;;;;;;;2.63;100.00;99090.38;4993126;28;20030;-67
2021/10/15 03:03:11;;;;;;;7.50;4.15;;;;;;;2.57;100.00;99098.13;4993210;28;20101;-67
2021/10/15 03:05:36;;;;;;;8.48;4.93;;;;;;;2.45;100.00;99083.28;4993821;28;20030;-67
2021/10/15 03:08:02;;;;;;;8.85;4.07;;;;;;;2.60;100.00;99092.50;4994257;28;20491;-68
2021/10/15 03:10:27;;;;;;;8.35;4.30;;;;;;;2.69;100.00;99075.59;5005459;28;20049;-67
2021/10/15 03:12:52;;;;;;;7.93;4.95;;;;;;;2.83;100.00;99088.47;4993183;28;20108;-67
2021/10/15 03:15:18;;;;;;;8.85;5.05;;;;;;;2.76;100.00;99074.03;4993495;28;20026;-66
2021/10/15 03:17:43;;;;;;;12.93;4.68;;;;;;;2.82;100.00;99086.78;4983287;28;20050;-67
2021/10/15 03:20:09;;;;;;;9.68;4.72;;;;;;;2.73;100.00;99081.50;4985758;28;20434;-67
2021/10/15 03:22:34;;;;;;;7.10;4.13;;;;;;;2.72;100.00;99102.00;4993049;28;20030;-66
2021/10/15 03:25:00;;;;;;;7.55;4.80;;;;;;;2.61;100.00;99067.47;4987175;28;20022;-67
2021/10/15 03:27:25;;;;;;;6.45;4.28;;;;;;;2.77;100.00;99078.38;4993301;28;20120;-67
2021/10/15 03:29:50;;;;;;;8.35;4.07;;;;;;;2.74;100.00;99061.78;4977027;28;20445;-67
2021/10/15 03:32:16;;;;;;;9.27;5.22;;;;;;;3.02;100.00;99078.69;4989478;28;20487;-67
2021/10/15 03:34:41;;;;;;;9.40;5.47;;;;;;;2.94;100.00;99062.56;4992909;28;20111;-68
2021/10/15 03:37:06;;;;;;;9.50;6.32;;;;;;;3.30;100.00;99076.81;4978819;28;20034;-67
2021/10/15 03:39:32;;;;;;;12.35;6.22;;;;;;;3.42;100.00;99077.47;4985194;28;20092;-67
2021/10/15 03:41:57;;;;;;;12.63;5.57;;;;;;;3.34;100.00;99072.88;4992855;28;20026;-67
2021/10/15 03:44:22;;;;;;;11.80;6.00;;;;;;;3.43;100.00;99080.00;4992884;28;20165;-67
2021/10/15 03:46:48;;;;;;;12.73;6.22;;;;;;;3.46;100.00;99076.19;4993254;28;20034;-67
2021/10/15 03:49:13;;;;;;;12.07;6.15;;;;;;;3.53;100.00;99063.88;4992420;28;20026;-67
2021/10/15 03:51:39;;;;;;;11.27;5.60;;;;;;;3.55;100.00;99077.94;4990747;28;20105;-67
2021/10/15 03:54:04;;;;;;;10.02;5.43;;;;;;;3.64;100.00;99082.41;4993230;28;20030;-67
2021/10/15 03:56:29;;;;;;;12.10;5.40;;;;;;;3.66;100.00;99069.69;4992875;28;20018;-67
2021/10/15 03:58:54;;;;;;;14.23;5.50;;;;;;;3.68;100.00;99072.22;4994514;28;20510;-67
2021/10/15 04:01:20;;;;;;;9.07;5.10;;;;;;;3.55;100.00;99066.41;4996784;28;20463;-67
2021/10/15 04:03:45;;;;;;;10.70;5.38;;;;;;;3.58;100.00;99069.59;4996881;28;20084;-68
2021/10/15 04:06:10;;;;;;;9.50;5.22;;;;;;;3.35;100.00;99038.94;4996595;28;20109;-67
2021/10/15 04:08:36;;;;;;;9.15;5.90;;;;;;;3.46;100.00;99065.50;4995029;28;20041;-67
2021/10/15 04:11:01;;;;;;;10.35;5.63;;;;;;;3.25;100.00;99041.69;4992838;28;20026;-68
2021/10/15 04:13:27;;;;;;;9.48;5.43;;;;;;;3.27;100.00;99069.97;4994807;28;20028;-67
2021/10/15 04:15:52;;;;;;;10.57;5.30;;;;;;;3.24;100.00;99064.91;4996947;28;20361;-68
2021/10/15 04:18:17;;;;;;;9.35;5.15;;;;;;;3.34;100.00;99059.50;4997032;28;20041;-67
2021/10/15 04:20:43;;;;;;;9.00;5.18;;;;;;;3.34;100.00;99058.66;4994962;28;20049;-67
2021/10/15 04:23:08;;;;;;;8.68;5.43;;;;;;;3.53;100.00;99053.16;4996883;28;20026;-67
2021/10/15 04:25:34;;;;;;;10.40;6.10;;;;;;;3.35;100.00;99036.28;5008220;28;20027;-67
2021/10/15 04:27:59;;;;;;;12.40;6.60;;;;;;;3.60;100.00;99046.22;4996746;28;20091;-68
2021/10/15 04:30:24;;;;;;;9.95;5.72;;;;;;;3.39;100.00;99027.78;4990487;28;20033;-71
2021/10/15 04:32:50;;;;;;;8.85;5.50;;;;;;;3.23;100.00;99006.25;4991775;28;20030;-74
2021/10/15 04:35:15;;;;;;;12.68;5.88;;;;;;;3.40;100.00;99028.63;4995454;28;20521;-71
2021/10/15 04:37:40;;;;;;;10.80;6.13;;;;;;;3.41;100.00;99011.63;4995136;28;20034;-75
2021/10/15 04:40:06;;;;;;;9.48;5.20;;;;;;;3.54;100.00;99022.75;4996525;28;20037;-72
2021/10/15 04:42:32;;;;;;;9.40;5.53;;;;;;;3.71;100.00;99043.31;4997978;28;20057;-72
2021/10/15 04:44:57;;;;;;;8.73;5.53;;;;;;;3.54;100.00;99004.03;4994941;28;20065;-70
2021/10/15 04:47:23;;;;;;;13.18;5.38;;;;;;;3.61;100.00;99026.50;4995130;28;20089;-73
2021/10/15 04:49:48;;;;;;;8.60;5.45;;;;;;;3.67;100.00;99039.28;4996003;28;20030;-71
2021/10/15 04:52:14;;;;;;;12.25;6.43;;;;;;;3.53;100.00;99034.44;4996054;28;20029;-74
2021/10/15 04:54:39;;;;;;;10.15;5.30;;;;;;;3.29;100.00;99029.69;5003345;28;20399;-72
2021/10/15 04:57:04;;;;;;;11.05;5.13;;;;;;;3.19;100.00;99019.06;4992088;28;20080;-73
2021/10/15 04:59:30;;;;;;;7.57;5.07;;;;;;;3.15;100.00;99044.44;4995942;28;20519;-73
2021/10/15 05:01:55;;;;;;;10.50;5.60;;;;;;;3.01;100.00;99028.88;4988068;28;20041;-74
2021/10/15 05:04:20;;;;;;;9.15;5.32;;;;;;;2.75;100.00;99013.56;4995676;28;20100;-75
2021/10/15 05:06:46;;;;;;;8.93;5.68;;;;;;;2.71;100.00;99020.19;4996442;28;20041;-75
2021/10/15 05:11:45;;;;;;;10.48;5.55;;;;;;;2.62;100.00;99016.59;4996921;28;20023;-76
2021/10/15 05:14:11;;;;;;;9.95;5.45;;;;;;;2.52;100.00;98990.91;4991447;28;20369;-72
2021/10/15 05:16:36;;;;;;;10.90;5.47;;;;;;;2.68;100.00;99031.16;5008937;28;20027;-73
2021/10/15 05:19:02;;;;;;;10.52;5.38;;;;;;;2.61;100.00;99030.06;4979577;28;20030;-75
2021/10/15 05:21:27;;;;;;;8.05;5.20;;;;;;;2.46;100.00;99008.34;5013090;28;20116;-73
2021/10/15 05:23:53;;;;;;;8.57;5.15;;;;;;;2.52;100.00;99020.28;4996532;28;20053;-71
2021/10/15 05:26:18;;;;;;;9.00;5.20;;;;;;;2.51;100.00;99016.75;4976953;28;20023;-74
2021/10/15 05:28:43;;;;;;;8.02;4.53;;;;;;;2.54;100.00;99023.63;4995334;28;20034;-73
2021/10/15 05:31:08;;;;;;;9.57;5.57;;;;;;;2.51;100.00;99014.06;4995110;28;20463;-76
2021/10/15 05:33:34;;;;;;;9.82;5.88;;;;;;;2.65;100.00;99018.13;4988033;28;20034;-76
2021/10/15 05:35:59;;;;;;;11.43;5.47;;;;;;;2.64;100.00;99016.41;5010406;28;20021;-75
2021/10/15 05:38:24;;;;;;;9.48;4.75;;;;;;;2.75;100.00;99015.38;4991747;28;20094;-71
2021/10/15 05:40:50;;;;;;;9.13;5.35;;;;;;;2.84;100.00;99030.53;4991914;28;20030;-68
2021/10/15 05:43:15;;;;;;;7.82;5.03;;;;;;;2.74;100.00;99009.19;4993743;28;20038;-68
2021/10/15 05:45:40;;;;;;;8.90;5.43;;;;;;;2.80;100.00;98995.28;4998032;28;20062;-74
2021/10/15 05:48:05;;;;;;;12.98;5.75;;;;;;;2.97;100.00;99024.84;4995694;28;20156;-69
2021/10/15 05:50:31;;;;;;;9.20;5.30;;;;;;;3.04;100.00;99025.94;4985070;28;20035;-77
2021/10/15 05:53:04;;;;;;;9.98;5.72;;;;;;;2.94;100.00;99003.75;4992605;28;20538;-78
2021/10/15 06:01:11;;;;;;;12.68;7.47;;;;;;;3.19;100.00;99008.38;4988691;28;20073;-68
2021/10/15 06:03:38;;;;;;;36.60;15.05;;;;;;;3.22;100.00;99000.06;4995716;28;20077;-68
2021/10/15 06:16:20;;;;;;;13.13;6.85;;;;;;;8.23;86.81;99012.69;4992717;28;20022;-68
2021/10/15 06:18:53;;;;;;;8.70;5.30;;;;;;;9.14;83.50;98986.34;4997132;28;20410;-68
2021/10/15 06:21:19;;;;;;;12.30;5.80;;;;;;;10.12;74.76;99013.75;4998054;28;20476;-68
2021/10/15 06:23:44;;;;;;;10.93;5.45;;;;;;;11.22;64.42;99009.47;4982532;28;20404;-68
2021/10/15 06:26:09;;;;;;;10.10;5.53;;;;;;;11.67;63.25;99007.09;4998502;28;20113;-68
2021/10/15 06:28:35;;;;;;;13.32;6.03;;;;;;;10.42;65.62;99003.59;4995269;28;20069;-70
2021/10/15 06:31:00;;;;;;;8.02;5.18;;;;;;;9.10;71.00;99012.06;4991619;28;20116;-68
2021/10/15 06:33:25;;;;;;;10.13;5.32;;;;;;;8.17;76.15;99024.19;4991694;28;20026;-68
2021/10/15 06:35:51;;;;;;;9.00;5.28;;;;;;;7.47;79.11;99021.53;4989961;28;20113;-68
2021/10/15 06:38:16;;;;;;;11.70;6.60;;;;;;;7.15;80.79;99021.69;5009095;28;20472;-73
2021/10/15 06:40:41;;;;;;;8.38;5.45;;;;;;;7.48;81.98;99000.81;4994819;28;20086;-74
2021/10/15 06:43:07;;;;;;;11.60;5.07;;;;;;;8.40;76.38;99021.47;4995617;28;20511;-72
2021/10/15 06:45:33;;;;;;;10.90;6.60;;;;;;;8.46;75.29;99026.97;4998102;28;20030;-70
2021/10/15 06:47:59;;;;;;;14.13;7.75;;;;;;;7.75;74.67;99028.22;4986215;28;20026;-70
2021/10/15 06:50:24;;;;;;;16.15;7.53;;;;;;;7.41;74.32;99016.00;4993401;28;20407;-75
2021/10/15 06:52:49;;;;;;;10.18;5.80;;;;;;;7.08;75.61;99015.38;5008518;28;20038;-73
2021/10/15 06:55:16;;;;;;;14.27;6.57;;;;;;;7.02;79.39;99024.94;4994299;28;20105;-72
2021/10/15 06:57:42;;;;;;;21.25;9.48;;;;;;;7.45;75.49;99025.41;4991270;28;20050;-75
2021/10/15 07:00:08;;;;;;;18.67;7.40;;;;;;;10.57;66.51;99007.03;4998429;28;20030;-73
2021/10/15 07:02:34;;;;;;;12.95;6.55;;;;;;;13.76;56.88;98996.22;5006694;28;20063;-74
2021/10/15 07:04:59;;;;;;;13.27;5.32;;;;;;;15.92;48.25;98998.97;4992756;28;20033;-75
2021/10/15 07:07:24;;;;;;;5.78;3.88;;;;;;;16.98;46.03;99011.91;4992799;28;20468;-72
2021/10/15 07:09:49;;;;;;;5.22;3.28;;;;;;;16.58;47.01;99015.31;4991523;28;20033;-77
2021/10/15 07:12:15;;;;;;;8.60;3.45;;;;;;;15.68;47.33;99027.22;4987352;28;20023;-69
2021/10/15 07:14:40;;;;;;;6.80;3.97;;;;;;;13.74;52.08;99028.25;4985604;28;20100;-67
2021/10/15 07:19:41;;;;;;;5.30;3.08;;;;;;;15.95;48.01;99014.88;5599839;22;20057;-74
2021/10/15 07:22:07;;;;;;;9.27;3.10;;;;;;;17.14;45.44;99013.06;5017532;28;20076;-74
2021/10/15 07:24:32;;;;;;;5.30;3.58;;;;;;;16.14;46.06;98984.78;5016761;28;20029;-74
2021/10/15 07:26:57;;;;;;;5.50;3.58;;;;;;;17.27;44.85;99016.34;5014066;28;20018;-66
2021/10/15 07:29:22;;;;;;;5.88;3.50;;;;;;;18.12;42.73;99001.00;5012005;28;20152;-75
2021/10/15 07:31:48;;;;;;;4.65;3.38;;;;;;;18.49;40.83;99000.50;5014323;28;20025;-75
2021/10/15 07:34:13;;;;;;;5.72;3.33;;;;;;;19.72;40.34;99012.34;5010567;28;20402;-70
2021/10/15 07:36:39;;;;;;;6.13;3.17;;;;;;;19.91;38.89;99005.41;5011370;28;20041;-70
2021/10/15 07:39:06;;;;;;;6.38;3.20;;;;;;;18.98;41.85;99003.47;5006215;28;20022;-79
2021/10/15 07:41:32;;;;;;;7.55;4.00;;;;;;;18.41;42.32;99025.59;5016318;28;20034;-74
2021/10/15 07:43:57;;;;;;;7.55;3.90;;;;;;;18.41;43.74;99011.91;5011538;28;20076;-74
2021/10/15 07:46:22;;;;;;;6.57;4.03;;;;;;;16.81;45.91;99012.63;5016363;28;20060;-74
2021/10/15 07:48:47;;;;;;;6.60;4.70;;;;;;;15.33;50.04;99023.25;5016028;28;20026;-73
2021/10/15 07:53:40;;;;;;;5.82;4.22;;;;;;;14.00;54.95;99029.13;4989625;28;20495;-72
2021/10/15 07:56:06;;;;;;;6.03;3.42;;;;;;;14.02;55.68;99025.13;4990246;28;20022;-72
2021/10/15 07:58:31;;;;;;;5.80;3.53;;;;;;;13.99;54.67;99016.56;4988947;28;20026;-72
2021/10/15 08:00:57;;;;;;;6.72;3.45;;;;;;;14.73;53.80;99031.28;4984274;28;20162;-74
2021/10/15 08:03:22;;;;;;;6.75;3.15;;;;;;;16.25;49.42;99027.66;4988451;28;20026;-74
2021/10/15 08:05:47;;;;;;;5.45;3.20;;;;;;;18.61;45.50;99028.66;4981374;28;20118;-74
2021/10/15 08:08:13;;;;;;;9.60;3.20;;;;;;;21.19;40.49;99025.63;4985876;28;20022;-75
2021/10/15 08:10:38;;;;;;;10.57;5.28;;;;;;;22.46;37.45;99027.94;4990477;28;20365;-76
2021/10/15 08:13:04;;;;;;;11.07;5.72;;;;;;;22.93;35.71;99021.28;4993474;28;20691;-74
2021/10/15 08:15:29;;;;;;;7.70;3.03;;;;;;;23.46;34.23;99018.09;4991539;28;20032;-75
2021/10/15 08:17:55;;;;;;;5.15;3.50;;;;;;;22.57;36.34;99019.69;4983496;28;20411;-74
2021/10/15 08:20:21;;;;;;;8.98;3.60;;;;;;;20.93;38.96;99016.41;4985234;28;20129;-69
2021/10/15 08:22:48;;;;;;;3.80;2.95;;;;;;;21.34;38.24;99035.91;4991039;28;20054;-69
2021/10/15 08:25:14;;;;;;;7.13;3.42;;;;;;;22.04;37.97;99030.91;4992020;28;20030;-68
2021/10/15 08:27:39;;;;;;;9.07;3.58;;;;;;;21.85;37.59;99030.59;4990092;28;20096;-70
2021/10/15 08:30:05;;;;;;;5.60;3.47;;;;;;;19.73;40.55;99039.56;5006080;28;20034;-70
2021/10/15 08:32:30;;;;;;;6.60;3.20;;;;;;;18.43;42.80;99042.63;5007216;28;20030;-68
2021/10/15 08:34:55;;;;;;;3.97;3.05;;;;;;;18.98;42.10;99041.84;5009839;28;20030;-69
2021/10/15 08:37:21;;;;;;;5.65;3.25;;;;;;;18.42;43.67;99038.22;5005896;28;20468;-74
2021/10/15 08:39:46;;;;;;;7.82;3.75;;;;;;;18.65;43.13;99028.97;4996103;28;20023;-75
2021/10/15 08:42:14;;;;;;;4.85;3.30;;;;;;;19.77;40.01;99010.47;5006509;28;20031;-72
2021/10/15 08:44:42;;;;;;;8.00;3.30;;;;;;;19.69;39.62;99024.66;5010053;28;20050;-70
2021/10/15 08:47:08;;;;;;;5.45;3.05;;;;;;;19.27;40.84;99023.31;5009019;28;20076;-71
2021/10/15 08:49:34;;;;;;;5.72;3.45;;;;;;;18.23;42.66;99020.34;5007284;28;20027;-69
2021/10/15 08:52:00;;;;;;;5.63;3.38;;;;;;;18.78;42.10;99011.41;4999762;28;20122;-69
2021/10/15 08:54:27;;;;;;;5.38;3.28;;;;;;;18.89;42.29;99009.63;4999859;28;20041;-70
2021/10/15 08:56:56;;;;;;;7.88;3.33;;;;;;;20.43;39.49;99018.50;5004634;28;20038;-70
2021/10/15 08:59:35;;;;;;;5.95;3.35;;;;;;;18.34;42.21;99006.59;4996887;28;20094;-73
2021/10/15 09:02:08;;;;;;;;;;;;;;;18.57;41.93;99018.44;4999782;28;20101;-72
2021/10/15 09:05:01;;;;;;;8.50;2.97;;;;;;;18.64;42.92;99012.81;4996083;28;19933;-73
2021/10/15 09:07:27;;;;;;;8.35;3.30;;;;;;;17.99;43.59;99009.53;4976410;28;20411;-74
2021/10/15 09:10:12;;;;;;;6.97;3.20;;;;;;;19.19;41.01;99021.03;4985175;28;20026;-73
2021/10/15 09:12:58;;;;;;;5.15;2.58;;;;;;;20.46;39.38;99019.91;4995352;28;20381;-72
2021/10/15 09:15:34;;;;;;;5.10;3.20;;;;;;;20.92;38.07;99020.25;4995283;28;20022;-68
2021/10/15 09:18:10;;;;;;;4.45;2.85;;;;;;;21.81;36.51;99010.22;4990446;28;20459;-68
2021/10/15 09:20:36;;;;;;;8.15;2.88;;;;;;;21.84;36.69;99010.47;4988633;28;20034;-68
2021/10/15 09:23:02;;;;;;;4.97;3.28;;;;;;;22.00;36.39;99011.34;4992183;28;20092;-68
2021/10/15 09:25:36;;;;;;;4.93;2.90;;;;;;;22.94;35.22;99014.63;4992907;28;20038;-68
2021/10/15 09:28:10;;;;;;;6.28;3.40;;;;;;;23.87;33.60;99014.31;4995613;28;20026;-68
2021/10/15 09:30:40;;;;;;;4.57;2.97;;;;;;;22.85;35.13;99010.00;5012199;28;20026;-69
2021/10/15 09:33:05;;;;;;;6.93;2.88;;;;;;;22.16;35.47;99019.63;5005735;28;20041;-68
2021/10/15 09:35:32;;;;;;;5.05;3.05;;;;;;;22.92;34.02;99010.50;4992649;28;20034;-68
2021/10/15 09:38:07;;;;;;;5.13;2.70;;;;;;;22.69;33.81;99018.28;4994430;28;20258;-68
2021/10/15 09:40:40;;;;;;;5.45;2.90;;;;;;;22.28;35.52;99026.56;4993821;28;20030;-68
2021/10/15 09:43:09;;;;;;;4.40;2.90;;;;;;;23.51;34.30;99022.78;4989614;28;20030;-68
2021/10/15 09:45:46;;;;;;;5.75;2.33;;;;;;;23.30;34.62;99013.75;4989885;28;20056;-68
2021/10/15 09:48:17;;;;;;;6.10;2.90;;;;;;;25.03;32.04;99022.78;4991861;28;20050;-68
2021/10/15 09:50:42;;;;;;;4.40;2.70;;;;;;;23.90;33.34;99020.13;4991631;28;20030;-68
2021/10/15 09:53:08;;;;;;;4.72;2.97;;;;;;;25.06;31.63;99010.31;4985049;28;20616;-68
2021/10/15 09:55:36;;;;;;;4.95;2.55;;;;;;;25.19;32.05;99014.34;4989784;28;20034;-68
2021/10/15 09:58:13;;;;;;;6.03;2.60;;;;;;;24.43;32.51;99016.69;4989582;28;20491;-68
2021/10/15 10:00:39;;;;;;;4.53;2.30;;;;;;;25.06;31.75;99011.13;4990365;28;20030;-68
2021/10/15 10:03:05;;;;;;;4.80;2.10;;;;;;;26.37;29.69;99011.63;4989583;28;20048;-68
2021/10/15 10:05:31;;;;;;;6.75;2.33;;;;;;;26.05;30.79;99008.81;4988565;28;20030;-68
2021/10/15 10:07:57;;;;;;;5.20;2.58;;;;;;;26.25;30.38;99000.16;4991194;28;20041;-69
2021/10/15 10:10:25;;;;;;;3.50;2.50;;;;;;;25.87;29.77;98994.66;4988806;28;20034;-69
2021/10/15 10:12:51;;;;;;;2.95;2.17;;;;;;;26.17;30.64;98993.38;4979993;28;20484;-69
2021/10/15 10:15:23;;;;;;;3.45;2.28;;;;;;;27.43;28.36;98979.44;4990702;28;20034;-69
2021/10/15 10:20:49;;;;;;;3.45;2.08;;;;;;;25.42;29.88;98993.31;4990060;28;20490;-69
2021/10/15 10:23:27;;;;;;;4.50;2.55;;;;;;;26.20;30.34;98983.63;4986251;28;20057;-69
2021/10/15 10:25:58;;;;;;;3.78;2.38;;;;;;;25.57;30.59;98988.41;4990522;28;20030;-69
2021/10/15 10:28:24;;;;;;;4.60;2.30;;;;;;;25.84;30.13;98984.16;4989673;28;20138;-69
2021/10/15 10:30:53;;;;;;;5.53;2.30;;;;;;;25.86;31.17;98989.38;4988956;28;20029;-69
2021/10/15 10:33:20;;;;;;;4.75;2.17;;;;;;;26.57;30.23;98988.28;4989385;28;20034;-69
2021/10/15 10:35:46;;;;;;;4.18;1.83;;;;;;;27.21;28.98;98991.28;4987307;28;20030;-70
2021/10/15 10:38:20;;;;;;;3.10;1.90;;;;;;;24.65;33.25;98989.44;4989438;28;20026;-70
2021/10/15 10:41:01;;;;;;;6.15;2.45;;;;;;;26.68;30.42;98977.81;4989280;28;20743;-69
2021/10/15 10:43:44;;;;;;;4.50;2.00;;;;;;;28.11;28.33;98985.16;4989466;28;20030;-70
2021/10/15 10:46:15;;;;;;;3.08;1.98;;;;;;;26.77;29.23;98978.75;5003031;28;20114;-70
2021/10/15 10:49:03;;;;;;;2.95;2.15;;;;;;;24.89;31.26;98996.94;4988440;28;20507;-70
2021/10/15 10:51:30;;;;;;;;;;;;;;;26.10;30.95;98989.34;4983320;28;20081;-70
2021/10/15 10:54:07;;;;;;;3.55;2.08;;;;;;;25.34;30.84;98990.06;4984906;28;19913;-69
2021/10/15 10:56:39;;;;;;;4.88;2.03;;;;;;;24.61;33.57;98996.66;4987962;28;20053;-70
2021/10/15 10:59:25;;;;;;;3.95;2.45;;;;;;;24.83;33.09;98990.59;4989167;28;20584;-70
2021/10/15 11:01:55;;;;;;;2.92;2.00;;;;;;;26.45;30.88;98977.63;4988919;28;20038;-70
2021/10/15 11:04:35;;;;;;;5.53;2.28;;;;;;;26.07;30.51;98978.81;4988711;28;20026;-69
2021/10/15 11:07:05;;;;;;;4.03;1.80;;;;;;;27.30;29.41;98981.09;4988316;28;20688;-70
2021/10/15 11:09:53;;;;;;;2.50;1.83;;;;;;;28.47;28.07;98965.63;4989529;28;20562;-69
2021/10/15 11:12:25;;;;;;;4.40;2.47;;;;;;;28.31;27.53;98981.06;4988776;28;20030;-69
2021/10/15 11:15:07;;;;;;;4.75;2.53;;;;;;;26.58;30.18;98978.00;4988495;28;20042;-70
2021/10/15 11:17:47;;;;;;;2.65;1.80;;;;;;;27.69;29.27;98968.59;4988823;28;20018;-69
2021/10/15 11:20:30;;;;;;;4.47;2.10;;;;;;;27.34;29.21;98961.03;4986888;28;20117;-70
2021/10/15 11:23:02;;;;;;;3.42;1.90;;;;;;;26.74;29.50;98962.72;4986863;28;20033;-69
2021/10/15 11:25:37;;;;;;;4.32;2.20;;;;;;;26.33;31.00;98954.25;4988180;28;20030;-70
2021/10/15 11:28:12;;;;;;;6.00;2.50;;;;;;;25.11;32.48;98958.47;4982364;28;20053;-69
2021/10/15 11:30:42;;;;;;;2.92;2.25;;;;;;;26.25;31.84;98947.47;4980026;28;20022;-70
2021/10/15 11:33:10;;;;;;;4.50;1.88;;;;;;;27.09;29.84;98950.09;4989756;28;20080;-70
2021/10/15 11:35:39;;;;;;;3.95;2.00;;;;;;;27.12;30.78;98943.13;4975107;28;20066;-70
2021/10/15 11:38:19;;;;;;;;;;;;;;;27.26;29.05;98941.16;4981086;28;20034;-69
2021/10/15 11:40:46;;;;;;;3.38;1.67;;;;;;;27.13;29.25;98938.38;4985073;28;19921;-69
2021/10/15 11:43:15;;;;;;;5.87;1.80;;;;;;;28.17;28.92;98933.84;4986058;28;20030;-70
2021/10/15 11:45:45;;;;;;;;;;;;;;;28.48;27.95;98935.84;4986389;28;20503;-70
2021/10/15 11:48:16;;;;;;;4.78;1.98;;;;;;;27.17;29.33;98920.81;4988066;28;19917;-72
2021/10/15 11:50:54;;;;;;;3.80;1.65;;;;;;;25.83;31.49;98924.25;4984432;28;20142;-73
2021/10/15 11:53:25;;;;;;;4.65;2.05;;;;;;;24.69;32.39;98931.56;4986483;28;20026;-74
2021/10/15 11:55:52;;;;;;;4.28;2.17;;;;;;;23.73;34.68;98936.78;4991641;28;20453;-72
2021/10/15 11:58:23;;;;;;;3.67;1.90;;;;;;;21.87;37.01;98943.81;4990728;28;20050;-71